createdAt,value
2023-04-02T00:00:59.373Z,973.82
2023-04-02T00:01:59.846Z,973.80
2023-04-02T00:03:00.422Z,973.79
2023-04-02T00:04:00.994Z,973.80
2023-04-02T00:05:01.464Z,973.79
2023-04-02T00:06:01.922Z,973.83
2023-04-02T00:07:02.375Z,973.82
2023-04-02T00:08:02.837Z,973.82
2023-04-02T00:09:03.276Z,973.83
2023-04-02T00:10:03.722Z,973.88
2023-04-02T00:11:04.180Z,973.87
2023-04-02T00:12:04.640Z,973.86
2023-04-02T00:13:05.097Z,973.86
2023-04-02T00:14:05.534Z,973.87
2023-04-02T00:15:05.988Z,973.86
2023-04-02T00:16:06.550Z,973.86
2023-04-02T00:17:07.031Z,973.88
2023-04-02T00:18:07.514Z,973.87
2023-04-02T00:19:07.957Z,973.89
2023-04-02T00:20:08.400Z,973.95
2023-04-02T00:21:08.852Z,973.90
2023-04-02T00:22:09.297Z,973.88
2023-04-02T00:23:09.770Z,973.90
2023-04-02T00:24:10.244Z,973.88
2023-04-02T00:25:10.704Z,973.88
2023-04-02T00:26:11.147Z,973.90
2023-04-02T00:27:11.599Z,973.88
2023-04-02T00:28:12.057Z,973.89
2023-04-02T00:29:12.519Z,973.91
2023-04-02T00:30:12.989Z,973.91
2023-04-02T00:31:13.444Z,973.90
2023-04-02T00:32:13.995Z,973.91
2023-04-02T00:33:14.454Z,973.92
2023-04-02T00:34:14.899Z,973.93
2023-04-02T00:35:15.368Z,973.90
2023-04-02T00:36:15.840Z,973.90
2023-04-02T00:37:16.301Z,973.90
2023-04-02T00:38:16.732Z,973.89
2023-04-02T00:39:17.254Z,973.87
2023-04-02T00:40:17.713Z,973.88
2023-04-02T00:41:18.164Z,973.87
2023-04-02T00:42:18.625Z,973.86
2023-04-02T00:43:19.102Z,973.86
2023-04-02T00:44:19.871Z,973.88
2023-04-02T00:45:19.742Z,973.88
2023-04-02T00:46:20.214Z,973.87
2023-04-02T00:47:20.670Z,973.88
2023-04-02T00:48:21.111Z,973.90
2023-04-02T00:49:21.561Z,973.89
2023-04-02T00:50:22.055Z,973.89
2023-04-02T00:51:22.558Z,973.88
2023-04-02T00:52:23.014Z,973.87
2023-04-02T00:53:23.491Z,973.85
2023-04-02T00:54:23.940Z,973.86
2023-04-02T00:55:24.382Z,973.86
2023-04-02T00:56:24.931Z,973.84
2023-04-02T00:57:25.486Z,973.85
2023-04-02T00:58:26.023Z,973.87
2023-04-02T00:59:26.517Z,973.84
2023-04-02T01:00:26.972Z,973.86
2023-04-02T01:01:27.563Z,973.87
2023-04-02T01:02:27.663Z,973.86
2023-04-02T01:03:28.267Z,973.88
2023-04-02T01:04:28.526Z,973.90
2023-04-02T01:05:29.151Z,973.91
2023-04-02T01:06:29.680Z,973.93
2023-04-02T01:07:30.131Z,973.95
2023-04-02T01:08:30.588Z,973.95
2023-04-02T01:09:31.036Z,973.96
2023-04-02T01:10:31.491Z,973.94
2023-04-02T01:11:31.955Z,973.99
2023-04-02T01:12:32.403Z,973.99
2023-04-02T01:13:32.867Z,973.98
2023-04-02T01:14:33.326Z,973.97
2023-04-02T01:15:34.154Z,973.93
2023-04-02T01:16:34.307Z,973.98
2023-04-02T01:17:34.764Z,974.02
2023-04-02T01:18:35.229Z,974.02
2023-04-02T01:19:35.727Z,974.05
2023-04-02T01:20:36.175Z,974.00
2023-04-02T01:21:36.608Z,974.00
2023-04-02T01:22:37.057Z,974.05
2023-04-02T01:23:37.508Z,974.00
2023-04-02T01:24:37.952Z,974.05
2023-04-02T01:25:38.426Z,974.04
2023-04-02T01:26:38.886Z,974.04
2023-04-02T01:27:39.335Z,974.05
2023-04-02T01:28:39.769Z,974.03
2023-04-02T01:29:40.232Z,974.04
2023-04-02T01:30:40.699Z,974.06
2023-04-02T01:31:41.155Z,974.10
2023-04-02T01:32:41.671Z,974.09
2023-04-02T01:33:42.137Z,974.09
2023-04-02T01:34:42.571Z,974.10
2023-04-02T01:35:43.185Z,974.11
2023-04-02T01:36:43.633Z,974.13
2023-04-02T01:37:44.084Z,974.13
2023-04-02T01:38:44.531Z,974.11
2023-04-02T01:39:44.976Z,974.13
2023-04-02T01:40:45.411Z,974.15
2023-04-02T01:41:45.858Z,974.14
2023-04-02T01:42:46.314Z,974.15
2023-04-02T01:43:46.770Z,974.16
2023-04-02T01:44:47.247Z,974.15
2023-04-02T01:45:47.704Z,974.18
2023-04-02T01:46:48.179Z,974.17
2023-04-02T01:47:48.687Z,974.19
2023-04-02T01:48:49.224Z,974.21
2023-04-02T01:49:49.672Z,974.23
2023-04-02T01:50:50.108Z,974.22
2023-04-02T01:51:50.571Z,974.24
2023-04-02T01:55:12.719Z,974.26
2023-04-02T01:56:14.351Z,974.24
2023-04-02T01:57:14.888Z,974.26
2023-04-02T01:58:15.406Z,974.28
2023-04-02T01:59:15.889Z,974.29
2023-04-02T02:00:16.371Z,974.30
2023-04-02T02:01:16.913Z,974.27
2023-04-02T02:02:17.524Z,974.25
2023-04-02T02:03:18.042Z,974.27
2023-04-02T02:04:18.532Z,974.30
2023-04-02T02:05:18.998Z,974.29
2023-04-02T02:06:19.551Z,974.29
2023-04-02T02:07:20.014Z,974.30
2023-04-02T02:08:20.504Z,974.32
2023-04-02T02:09:20.983Z,974.33
2023-04-02T02:10:21.461Z,974.33
2023-04-02T02:11:21.939Z,974.35
2023-04-02T02:12:22.412Z,974.35
2023-04-02T02:13:22.883Z,974.36
2023-04-02T02:14:23.352Z,974.36
2023-04-02T02:15:23.829Z,974.39
2023-04-02T02:16:24.341Z,974.39
2023-04-02T02:17:24.840Z,974.40
2023-04-02T02:18:25.320Z,974.42
2023-04-02T02:19:25.788Z,974.47
2023-04-02T02:20:26.269Z,974.46
2023-04-02T02:21:26.748Z,974.46
2023-04-02T02:22:27.230Z,974.50
2023-04-02T02:23:27.718Z,974.51
2023-04-02T02:24:28.192Z,974.52
2023-04-02T02:25:28.666Z,974.51
2023-04-02T02:26:29.132Z,974.54
2023-04-02T02:27:29.606Z,974.57
2023-04-02T02:28:30.075Z,974.55
2023-04-02T02:29:30.546Z,974.56
2023-04-02T02:30:31.027Z,974.60
2023-04-02T02:31:31.538Z,974.61
2023-04-02T02:32:32.026Z,974.64
2023-04-02T02:33:32.510Z,974.63
2023-04-02T02:34:32.974Z,974.63
2023-04-02T02:35:33.891Z,974.64
2023-04-02T02:36:33.572Z,974.65
2023-04-02T02:37:34.088Z,974.63
2023-04-02T02:38:34.574Z,974.62
2023-04-02T02:39:35.038Z,974.63
2023-04-02T02:40:35.504Z,974.64
2023-04-02T02:41:35.970Z,974.64
2023-04-02T02:42:36.452Z,974.62
2023-04-02T02:43:36.941Z,974.65
2023-04-02T02:44:37.428Z,974.64
2023-04-02T02:45:38.113Z,974.64
2023-04-02T02:46:38.014Z,974.66
2023-04-02T02:47:38.513Z,974.68
2023-04-02T02:48:38.997Z,974.67
2023-04-02T02:49:39.483Z,974.69
2023-04-02T02:50:39.961Z,974.69
2023-04-02T02:51:40.425Z,974.69
2023-04-02T02:52:40.900Z,974.71
2023-04-02T02:53:41.369Z,974.73
2023-04-02T02:54:41.845Z,974.73
2023-04-02T02:55:42.306Z,974.73
2023-04-02T02:56:42.760Z,974.73
2023-04-02T02:57:43.240Z,974.75
2023-04-02T02:58:43.721Z,974.74
2023-04-02T02:59:44.198Z,974.76
2023-04-02T03:00:44.695Z,974.78
2023-04-02T03:01:45.248Z,974.77
2023-04-02T03:02:45.851Z,974.79
2023-04-02T03:03:46.656Z,974.81
2023-04-02T03:04:46.713Z,974.83
2023-04-02T03:05:47.181Z,974.83
2023-04-02T03:06:47.646Z,974.84
2023-04-02T03:07:48.113Z,974.84
2023-04-02T03:08:48.575Z,974.86
2023-04-02T03:09:49.030Z,974.88
2023-04-02T03:10:49.501Z,974.89
2023-04-02T03:11:49.972Z,974.91
2023-04-02T03:12:50.462Z,974.92
2023-04-02T03:13:50.917Z,974.93
2023-04-02T03:14:51.382Z,974.93
2023-04-02T03:15:52.067Z,974.94
2023-04-02T03:16:52.559Z,974.96
2023-04-02T03:17:53.095Z,974.96
2023-04-02T03:18:53.592Z,974.98
2023-04-02T03:19:54.066Z,974.97
2023-04-02T03:20:54.527Z,974.98
2023-04-02T03:21:54.995Z,974.97
2023-04-02T03:22:55.453Z,975.00
2023-04-02T03:23:55.912Z,975.01
2023-04-02T03:24:56.394Z,975.02
2023-04-02T03:25:56.854Z,975.03
2023-04-02T03:26:57.308Z,975.03
2023-04-02T03:27:57.777Z,975.02
2023-04-02T03:28:58.240Z,975.07
2023-04-02T03:29:58.699Z,975.07
2023-04-02T03:30:59.217Z,975.10
2023-04-02T03:31:59.691Z,975.07
2023-04-02T03:33:00.217Z,975.08
2023-04-02T03:34:00.739Z,975.09
2023-04-02T03:35:01.225Z,975.14
2023-04-02T03:36:01.750Z,975.11
2023-04-02T03:37:02.255Z,975.13
2023-04-02T03:38:02.724Z,975.15
2023-04-02T03:39:03.186Z,975.14
2023-04-02T03:40:03.660Z,975.17
2023-04-02T03:41:04.132Z,975.15
2023-04-02T03:42:04.596Z,975.16
2023-04-02T03:43:05.072Z,975.19
2023-04-02T03:44:05.541Z,975.20
2023-04-02T03:45:06.021Z,975.21
2023-04-02T03:46:06.561Z,975.17
2023-04-02T03:47:07.077Z,975.18
2023-04-02T03:48:07.542Z,975.19
2023-04-02T03:49:08.022Z,975.17
2023-04-02T03:50:08.503Z,975.14
2023-04-02T03:51:08.967Z,975.17
2023-04-02T03:52:09.461Z,975.18
2023-04-02T03:53:09.921Z,975.22
2023-04-02T03:54:10.379Z,975.21
2023-04-02T03:55:10.975Z,975.21
2023-04-02T03:56:11.469Z,975.24
2023-04-02T03:57:12.000Z,975.25
2023-04-02T03:58:12.503Z,975.24
2023-04-02T03:59:12.992Z,975.23
2023-04-02T04:00:13.489Z,975.23
2023-04-02T04:01:13.980Z,975.23
2023-04-02T04:02:14.486Z,975.24
2023-04-02T04:03:15.003Z,975.23
2023-04-02T04:04:15.529Z,975.22
2023-04-02T04:05:16.020Z,975.27
2023-04-02T04:06:16.507Z,975.26
2023-04-02T04:07:16.993Z,975.28
2023-04-02T04:08:17.480Z,975.30
2023-04-02T04:09:17.972Z,975.33
2023-04-02T04:10:18.457Z,975.33
2023-04-02T04:11:18.965Z,975.32
2023-04-02T04:12:19.460Z,975.34
2023-04-02T04:13:19.924Z,975.37
2023-04-02T04:14:20.402Z,975.41
2023-04-02T04:15:20.870Z,975.40
2023-04-02T04:16:21.346Z,975.45
2023-04-02T04:17:21.821Z,975.44
2023-04-02T04:18:22.285Z,975.45
2023-04-02T04:19:22.746Z,975.46
2023-04-02T04:20:23.220Z,975.46
2023-04-02T04:21:23.690Z,975.46
2023-04-02T04:22:24.146Z,975.48
2023-04-02T04:23:24.635Z,975.47
2023-04-02T04:24:25.099Z,975.49
2023-04-02T04:25:25.574Z,975.52
2023-04-02T04:26:26.054Z,975.50
2023-04-02T04:27:26.528Z,975.54
2023-04-02T04:28:27.023Z,975.55
2023-04-02T04:29:27.511Z,975.53
2023-04-02T04:30:27.992Z,975.54
2023-04-02T04:31:28.479Z,975.60
2023-04-02T04:32:28.967Z,975.58
2023-04-02T04:33:29.434Z,975.60
2023-04-02T04:34:29.892Z,975.60
2023-04-02T04:35:30.393Z,975.63
2023-04-02T04:36:30.893Z,975.66
2023-04-02T04:37:31.426Z,975.68
2023-04-02T04:38:31.890Z,975.67
2023-04-02T04:39:32.370Z,975.70
2023-04-02T04:40:32.853Z,975.73
2023-04-02T04:41:33.322Z,975.72
2023-04-02T04:42:33.796Z,975.75
2023-04-02T04:43:34.262Z,975.77
2023-04-02T04:48:06.089Z,975.83
2023-04-02T04:49:07.773Z,975.84
2023-04-02T04:50:08.224Z,975.87
2023-04-02T04:51:08.672Z,975.87
2023-04-02T04:52:09.112Z,975.88
2023-04-02T04:53:09.590Z,975.87
2023-04-02T04:54:10.047Z,975.87
2023-04-02T04:55:11.338Z,975.91
2023-04-02T04:56:18.914Z,975.90
2023-04-02T04:57:11.244Z,975.94
2023-04-02T04:58:11.724Z,975.95
2023-04-02T05:00:23.723Z,975.97
2023-04-02T05:01:25.382Z,975.94
2023-04-02T05:02:26.172Z,975.93
2023-04-02T05:03:26.050Z,975.94
2023-04-02T05:04:26.527Z,975.95
2023-04-02T05:05:27.001Z,975.95
2023-04-02T05:06:27.442Z,975.95
2023-04-02T05:07:27.878Z,975.96
2023-04-02T05:08:28.344Z,975.98
2023-04-02T05:09:28.792Z,975.98
2023-04-02T05:10:29.252Z,976.00
2023-04-02T05:11:29.699Z,976.02
2023-04-02T05:12:30.179Z,976.02
2023-04-02T05:13:30.627Z,976.10
2023-04-02T05:14:31.188Z,976.11
2023-04-02T05:15:31.701Z,976.12
2023-04-02T05:16:32.250Z,976.14
2023-04-02T05:17:32.852Z,976.14
2023-04-02T05:18:33.335Z,976.15
2023-04-02T05:19:33.763Z,976.16
2023-04-02T05:20:34.201Z,976.16
2023-04-02T05:21:34.642Z,976.18
2023-04-02T05:22:35.099Z,976.20
2023-04-02T05:23:35.545Z,976.20
2023-04-02T05:24:35.985Z,976.22
2023-04-02T05:25:36.567Z,976.19
2023-04-02T05:26:36.657Z,976.22
2023-04-02T05:27:37.129Z,976.22
2023-04-02T05:28:37.585Z,976.24
2023-04-02T05:29:38.050Z,976.23
2023-04-02T05:30:38.526Z,976.25
2023-04-02T05:31:39.060Z,976.25
2023-04-02T05:32:39.597Z,976.26
2023-04-02T05:33:40.086Z,976.25
2023-04-02T05:34:40.549Z,976.24
2023-04-02T05:35:41.004Z,976.29
2023-04-02T05:36:41.468Z,976.32
2023-04-02T05:37:41.936Z,976.31
2023-04-02T05:38:42.404Z,976.35
2023-04-02T05:39:42.844Z,976.34
2023-04-02T05:40:43.292Z,976.36
2023-04-02T05:41:43.783Z,976.40
2023-04-02T05:42:44.262Z,976.41
2023-04-02T05:43:44.713Z,976.41
2023-04-02T05:44:45.167Z,976.44
2023-04-02T05:45:45.642Z,976.46
2023-04-02T05:46:46.186Z,976.47
2023-04-02T05:47:46.751Z,976.46
2023-04-02T05:48:47.273Z,976.51
2023-04-02T05:49:47.739Z,976.50
2023-04-02T05:50:48.209Z,976.50
2023-04-02T05:51:48.708Z,976.54
2023-04-02T05:52:49.187Z,976.53
2023-04-02T05:53:49.625Z,976.55
2023-04-02T05:54:50.067Z,976.57
2023-04-02T05:55:50.532Z,976.62
2023-04-02T05:56:51.030Z,976.65
2023-04-02T05:58:13.544Z,976.65
2023-04-02T05:58:51.739Z,976.67
2023-04-02T05:59:52.293Z,976.67
2023-04-02T06:00:52.744Z,976.65
2023-04-02T06:01:53.197Z,976.65
2023-04-02T06:02:53.786Z,976.66
2023-04-02T06:03:54.327Z,976.67
2023-04-02T06:04:54.842Z,976.69
2023-04-02T06:05:55.325Z,976.70
2023-04-02T06:06:55.804Z,976.71
2023-04-02T06:07:56.266Z,976.70
2023-04-02T06:08:56.721Z,976.72
2023-04-02T06:09:57.176Z,976.73
2023-04-02T06:10:57.642Z,976.76
2023-04-02T06:11:58.102Z,976.76
2023-04-02T06:12:58.563Z,976.76
2023-04-02T06:13:59.040Z,976.78
2023-04-02T06:14:59.514Z,976.79
2023-04-02T06:16:00.004Z,976.80
2023-04-02T06:17:00.511Z,976.81
2023-04-02T06:18:01.069Z,976.83
2023-04-02T06:19:01.565Z,976.84
2023-04-02T06:20:02.049Z,976.86
2023-04-02T06:21:02.514Z,976.88
2023-04-02T06:22:02.985Z,976.90
2023-04-02T06:23:03.459Z,976.91
2023-04-02T06:24:03.920Z,976.90
2023-04-02T06:25:04.387Z,976.94
2023-04-02T06:26:04.856Z,976.93
2023-04-02T06:27:05.322Z,976.95
2023-04-02T06:28:06.739Z,976.97
2023-04-02T06:29:05.942Z,976.97
2023-04-02T06:30:06.410Z,976.98
2023-04-02T06:31:06.903Z,977.00
2023-04-02T06:32:07.396Z,977.01
2023-04-02T06:33:07.912Z,977.01
2023-04-02T06:34:08.421Z,977.02
2023-04-02T06:35:08.977Z,977.05
2023-04-02T06:36:09.484Z,977.06
2023-04-02T06:37:09.966Z,977.08
2023-04-02T06:38:10.437Z,977.09
2023-04-02T06:39:10.905Z,977.12
2023-04-02T06:40:11.377Z,977.15
2023-04-02T06:41:11.825Z,977.13
2023-04-02T06:42:12.268Z,977.16
2023-04-02T06:43:12.749Z,977.19
2023-04-02T06:44:13.208Z,977.20
2023-04-02T06:45:13.661Z,977.23
2023-04-02T06:46:14.149Z,977.24
2023-04-02T06:47:14.652Z,977.27
2023-04-02T06:48:15.115Z,977.30
2023-04-02T06:49:15.572Z,977.31
2023-04-02T06:50:16.048Z,977.33
2023-04-02T06:51:16.530Z,977.36
2023-04-02T06:52:17.001Z,977.38
2023-04-02T06:53:17.476Z,977.40
2023-04-02T06:54:17.946Z,977.41
2023-04-02T06:55:18.464Z,977.41
2023-04-02T06:56:18.969Z,977.43
2023-04-02T06:57:21.190Z,977.44
2023-04-02T06:58:19.970Z,977.46
2023-04-02T07:00:39.543Z,977.51
2023-04-02T07:01:41.225Z,977.52
2023-04-02T07:02:41.796Z,977.53
2023-04-02T07:03:42.311Z,977.58
2023-04-02T07:04:42.837Z,977.57
2023-04-02T07:05:43.349Z,977.59
2023-04-02T07:06:43.884Z,977.60
2023-04-02T07:07:44.378Z,977.59
2023-04-02T07:08:44.908Z,977.61
2023-04-02T07:09:45.389Z,977.61
2023-04-02T07:10:45.875Z,977.63
2023-04-02T07:11:46.416Z,977.64
2023-04-02T07:12:46.911Z,977.66
2023-04-02T07:13:47.470Z,977.63
2023-04-02T07:14:47.959Z,977.66
2023-04-02T07:15:48.485Z,977.66
2023-04-02T07:16:48.525Z,977.67
2023-04-02T07:17:49.070Z,977.65
2023-04-02T07:18:49.614Z,977.66
2023-04-02T07:19:50.153Z,977.65
2023-04-02T07:20:52.041Z,977.66
2023-04-02T07:21:50.953Z,977.67
2023-04-02T07:22:51.439Z,977.71
2023-04-02T07:23:51.912Z,977.74
2023-04-02T07:24:52.392Z,977.74
2023-04-02T07:25:52.874Z,977.77
2023-04-02T07:26:53.375Z,977.77
2023-04-02T07:27:53.858Z,977.78
2023-04-02T07:28:54.338Z,977.81
2023-04-02T07:29:54.806Z,977.82
2023-04-02T07:30:55.265Z,977.81
2023-04-02T07:31:55.774Z,977.86
2023-04-02T07:32:56.343Z,977.87
2023-04-02T07:33:56.861Z,977.87
2023-04-02T07:34:57.356Z,977.87
2023-04-02T07:35:57.871Z,977.89
2023-04-02T07:36:58.369Z,977.90
2023-04-02T07:37:58.880Z,977.90
2023-04-02T07:38:59.389Z,977.91
2023-04-02T07:39:59.893Z,977.92
2023-04-02T07:41:00.372Z,977.92
2023-04-02T07:42:00.873Z,977.91
2023-04-02T07:43:01.382Z,977.91
2023-04-02T07:44:01.887Z,977.95
2023-04-02T07:45:04.618Z,977.97
2023-04-02T07:46:02.798Z,978.00
2023-04-02T07:47:03.304Z,978.01
2023-04-02T07:48:03.844Z,978.02
2023-04-02T07:49:04.368Z,978.05
2023-04-02T07:50:04.857Z,978.06
2023-04-02T07:51:05.353Z,978.07
2023-04-02T07:52:05.847Z,978.07
2023-04-02T07:53:06.350Z,978.10
2023-04-02T07:54:06.818Z,978.08
2023-04-02T07:55:07.287Z,978.10
2023-04-02T07:56:07.777Z,978.10
2023-04-02T07:57:08.340Z,978.10
2023-04-02T07:58:08.868Z,978.12
2023-04-02T07:59:09.356Z,978.14
2023-04-02T08:00:09.836Z,978.16
2023-04-02T08:01:10.318Z,978.17
2023-04-02T08:02:10.821Z,978.20
2023-04-02T08:03:11.523Z,978.21
2023-04-02T08:04:11.542Z,978.24
2023-04-02T08:05:12.135Z,978.25
2023-04-02T08:06:12.703Z,978.26
2023-04-02T08:07:13.263Z,978.25
2023-04-02T08:08:13.762Z,978.28
2023-04-02T08:09:14.245Z,978.28
2023-04-02T08:10:14.723Z,978.29
2023-04-02T08:11:15.211Z,978.30
2023-04-02T08:12:15.698Z,978.31
2023-04-02T08:13:16.173Z,978.31
2023-04-02T08:14:16.639Z,978.32
2023-04-02T08:15:17.152Z,978.33
2023-04-02T08:16:17.690Z,978.36
2023-04-02T08:17:18.216Z,978.36
2023-04-02T08:18:18.683Z,978.35
2023-04-02T08:19:19.145Z,978.36
2023-04-02T08:20:19.635Z,978.38
2023-04-02T08:21:20.132Z,978.38
2023-04-02T08:22:20.630Z,978.40
2023-04-02T08:23:21.117Z,978.42
2023-04-02T08:24:21.626Z,978.44
2023-04-02T08:25:22.156Z,978.46
2023-04-02T08:26:22.656Z,978.46
2023-04-02T08:27:23.144Z,978.48
2023-04-02T08:28:23.634Z,978.52
2023-04-02T08:29:24.130Z,978.51
2023-04-02T08:30:24.629Z,978.51
2023-04-02T08:31:25.226Z,978.55
2023-04-02T08:32:25.199Z,978.55
2023-04-02T08:33:25.693Z,978.58
2023-04-02T08:34:26.205Z,978.58
2023-04-02T08:35:26.708Z,978.58
2023-04-02T08:36:27.231Z,978.59
2023-04-02T08:39:49.593Z,978.64
2023-04-02T08:40:51.261Z,978.66
2023-04-02T08:41:51.730Z,978.68
2023-04-02T08:45:24.416Z,978.72
2023-04-02T08:46:15.244Z,978.69
2023-04-02T08:47:16.757Z,978.71
2023-04-02T08:48:16.024Z,978.70
2023-04-02T08:53:21.310Z,978.77
2023-04-02T08:54:22.978Z,978.78
2023-04-02T09:28:51.800Z,979.20
2023-04-02T09:29:52.876Z,979.18
2023-04-02T09:30:53.359Z,979.24
2023-04-02T09:31:53.898Z,979.21
2023-04-02T09:32:54.510Z,979.23
2023-04-02T09:33:55.078Z,979.24
2023-04-02T09:34:55.592Z,979.24
2023-04-02T09:35:56.149Z,979.26
2023-04-02T09:36:56.695Z,979.28
2023-04-02T09:37:57.219Z,979.28
2023-04-02T09:38:57.748Z,979.28
2023-04-02T09:39:58.289Z,979.29
2023-04-02T09:40:58.846Z,979.33
2023-04-02T09:42:05.577Z,979.32
2023-04-02T09:42:59.608Z,979.35
2023-04-02T09:44:00.140Z,979.37
2023-04-02T09:45:00.651Z,979.36
2023-04-02T09:46:01.179Z,979.38
2023-04-02T09:47:01.790Z,979.38
2023-04-02T09:48:02.327Z,979.39
2023-04-02T09:49:02.868Z,979.42
2023-04-02T09:50:03.419Z,979.42
2023-04-02T09:51:03.938Z,979.43
2023-04-02T09:52:04.455Z,979.44
2023-04-02T09:53:04.970Z,979.46
2023-04-02T09:54:05.478Z,979.47
2023-04-02T09:55:05.998Z,979.50
2023-04-02T09:56:06.525Z,979.51
2023-04-02T09:57:07.048Z,979.50
2023-04-02T09:58:07.585Z,979.52
2023-04-02T09:59:08.130Z,979.52
2023-04-02T10:00:14.635Z,979.56
2023-04-02T10:01:09.262Z,979.57
2023-04-02T10:02:09.818Z,979.53
2023-04-02T10:03:10.358Z,979.53
2023-04-02T10:04:10.943Z,979.52
2023-04-02T10:05:11.481Z,979.54
2023-04-02T10:06:12.016Z,979.56
2023-04-02T10:07:12.532Z,979.56
2023-04-02T10:08:13.056Z,979.57
2023-04-02T10:09:13.593Z,979.59
2023-04-02T10:10:14.121Z,979.59
2023-04-02T10:11:14.633Z,979.59
2023-04-02T10:12:15.155Z,979.65
2023-04-02T10:13:15.688Z,979.65
2023-04-02T10:14:16.215Z,979.64
2023-04-02T10:15:16.753Z,979.64
2023-04-02T10:16:17.324Z,979.66
2023-04-02T10:17:17.942Z,979.65
2023-04-02T10:18:17.993Z,979.66
2023-04-02T10:19:18.538Z,979.64
2023-04-02T10:20:19.076Z,979.65
2023-04-02T10:21:19.580Z,979.62
2023-04-02T10:22:20.111Z,979.67
2023-04-02T10:23:20.644Z,979.68
2023-04-02T10:24:21.161Z,979.70
2023-04-02T10:25:21.698Z,979.71
2023-04-02T10:26:22.213Z,979.76
2023-04-02T10:27:22.773Z,979.75
2023-04-02T10:28:23.333Z,979.75
2023-04-02T10:29:23.875Z,979.76
2023-04-02T10:30:24.448Z,979.74
2023-04-02T10:31:25.009Z,979.78
2023-04-02T10:32:25.611Z,979.76
2023-04-02T10:33:26.149Z,979.79
2023-04-02T10:34:26.673Z,979.78
2023-04-02T10:35:27.223Z,979.79
2023-04-02T10:36:27.757Z,979.78
2023-04-02T10:37:28.284Z,979.77
2023-04-02T10:38:28.839Z,979.77
2023-04-02T10:39:29.396Z,979.77
2023-04-02T10:40:29.952Z,979.77
2023-04-02T10:41:30.500Z,979.79
2023-04-02T10:42:31.022Z,979.79
2023-04-02T10:43:31.547Z,979.77
2023-04-02T10:44:32.082Z,979.77
2023-04-02T10:45:32.626Z,979.78
2023-04-02T10:46:33.197Z,979.79
2023-04-02T10:47:33.843Z,979.80
2023-04-02T10:48:34.389Z,979.80
2023-04-02T10:49:35.063Z,979.80
2023-04-02T10:50:35.074Z,979.85
2023-04-02T10:51:35.608Z,979.87
2023-04-02T10:52:36.121Z,979.90
2023-04-02T10:53:36.632Z,979.91
2023-04-02T10:54:37.163Z,979.92
2023-04-02T10:55:37.753Z,979.93
2023-04-02T10:56:50.193Z,979.97
2023-04-02T10:57:38.567Z,979.98
2023-04-02T10:58:39.128Z,979.98
2023-04-02T10:59:39.662Z,979.98
2023-04-02T11:00:40.215Z,979.97
2023-04-02T11:01:40.774Z,979.96
2023-04-02T11:02:41.432Z,979.97
2023-04-02T11:03:41.712Z,980.00
2023-04-02T11:04:41.823Z,979.98
2023-04-02T11:05:42.370Z,979.97
2023-04-02T11:06:42.902Z,980.01
2023-04-02T11:07:43.447Z,980.00
2023-04-02T11:08:43.997Z,980.02
2023-04-02T11:09:44.533Z,979.97
2023-04-02T11:10:45.091Z,980.00
2023-04-02T11:11:45.623Z,979.98
2023-04-02T11:12:46.161Z,979.97
2023-04-02T11:13:46.670Z,979.98
2023-04-02T11:14:47.201Z,979.99
2023-04-02T11:15:47.796Z,980.01
2023-04-02T11:16:48.453Z,979.98
2023-04-02T11:17:49.068Z,979.99
2023-04-02T11:18:49.652Z,980.03
2023-04-02T11:19:50.183Z,980.01
2023-04-02T11:20:50.739Z,980.01
2023-04-02T11:21:58.742Z,980.02
2023-04-02T11:22:51.493Z,980.06
2023-04-02T11:23:52.030Z,980.03
2023-04-02T11:24:52.578Z,980.04
2023-04-02T11:25:53.140Z,980.03
2023-04-02T11:26:53.676Z,980.05
2023-04-02T11:27:54.204Z,980.05
2023-04-02T11:28:54.867Z,980.03
2023-04-02T11:29:55.406Z,980.03
2023-04-02T11:30:55.506Z,980.03
2023-04-02T11:31:56.053Z,980.05
2023-04-02T11:32:56.647Z,980.06
2023-04-02T11:33:57.181Z,980.09
2023-04-02T11:35:06.595Z,980.11
2023-04-02T11:35:57.998Z,980.09
2023-04-02T11:36:58.551Z,980.12
2023-04-02T11:37:59.112Z,980.11
2023-04-02T11:39:07.639Z,980.10
2023-04-02T11:39:59.905Z,980.12
2023-04-02T11:41:00.445Z,980.18
2023-04-02T11:42:01.001Z,980.20
2023-04-02T11:43:01.576Z,980.23
2023-04-02T11:44:02.132Z,980.23
2023-04-02T11:45:02.680Z,980.22
2023-04-02T11:46:03.219Z,980.23
2023-04-02T11:47:03.756Z,980.23
2023-04-02T11:48:04.341Z,980.24
2023-04-02T11:49:04.544Z,980.28
2023-04-02T11:50:05.191Z,980.25
2023-04-02T11:51:05.817Z,980.27
2023-04-02T11:52:12.252Z,980.29
2023-04-02T11:53:06.666Z,980.28
2023-04-02T11:54:07.221Z,980.28
2023-04-02T11:55:07.781Z,980.30
2023-04-02T11:56:08.345Z,980.26
2023-04-02T11:57:08.910Z,980.28
2023-04-02T11:58:09.455Z,980.31
2023-04-02T11:59:10.007Z,980.32
2023-04-02T12:00:10.583Z,980.33
2023-04-02T12:01:11.426Z,980.34
2023-04-02T12:02:11.496Z,980.36
2023-04-02T12:03:12.183Z,980.36
2023-04-02T12:04:12.191Z,980.33
2023-04-02T12:05:12.857Z,980.32
2023-04-02T12:06:12.889Z,980.32
2023-04-02T12:07:13.445Z,980.31
2023-04-02T12:08:13.998Z,980.31
2023-04-02T12:09:15.522Z,980.31
2023-04-02T12:10:14.802Z,980.27
2023-04-02T12:14:47.941Z,980.34
2023-04-02T12:15:49.689Z,980.36
2023-04-02T12:16:49.585Z,980.36
2023-04-02T12:17:50.186Z,980.35
2023-04-02T12:18:50.757Z,980.36
2023-04-02T12:19:51.299Z,980.37
2023-04-02T12:20:51.844Z,980.34
2023-04-02T12:21:52.367Z,980.35
2023-04-02T12:22:52.907Z,980.38
2023-04-02T12:23:53.446Z,980.38
2023-04-02T12:24:53.981Z,980.39
2023-04-02T12:25:54.538Z,980.36
2023-04-02T12:26:55.077Z,980.35
2023-04-02T12:27:55.652Z,980.35
2023-04-02T12:28:56.206Z,980.37
2023-04-02T12:29:56.754Z,980.40
2023-04-02T12:30:57.436Z,980.43
2023-04-02T12:31:57.416Z,980.37
2023-04-02T12:32:57.992Z,980.39
2023-04-02T12:33:58.578Z,980.42
2023-04-02T12:34:59.131Z,980.42
2023-04-02T12:35:59.742Z,980.44
2023-04-02T12:36:59.762Z,980.46
2023-04-02T12:38:00.291Z,980.53
2023-04-02T12:39:00.835Z,980.52
2023-04-02T12:40:01.410Z,980.52
2023-04-02T12:41:01.932Z,980.53
2023-04-02T12:42:02.487Z,980.56
2023-04-02T12:43:03.025Z,980.58
2023-04-02T12:44:03.521Z,980.60
2023-04-02T12:45:04.104Z,980.66
2023-04-02T12:46:04.681Z,980.67
2023-04-02T12:47:05.255Z,980.70
2023-04-02T12:48:05.829Z,980.68
2023-04-02T12:49:06.402Z,980.70
2023-04-02T12:50:07.115Z,980.68
2023-04-02T12:51:07.117Z,980.73
2023-04-02T12:52:07.793Z,980.70
2023-04-02T12:53:07.981Z,980.71
2023-04-02T12:54:07.820Z,980.75
2023-04-02T12:55:08.340Z,980.77
2023-04-02T12:56:08.849Z,980.76
2023-04-02T12:57:09.535Z,980.75
2023-04-02T12:58:10.076Z,980.77
2023-04-02T12:59:10.613Z,980.77
2023-04-02T13:00:11.136Z,980.77
2023-04-02T13:01:11.670Z,980.80
2023-04-02T13:02:12.196Z,980.79
2023-04-02T13:03:12.790Z,980.80
2023-04-02T13:04:13.396Z,980.84
2023-04-02T13:05:13.973Z,980.83
2023-04-02T13:06:14.504Z,980.85
2023-04-02T13:07:15.034Z,980.85
2023-04-02T13:08:15.595Z,980.85
2023-04-02T13:09:16.128Z,980.87
2023-04-02T13:10:16.673Z,980.89
2023-04-02T13:11:17.201Z,980.90
2023-04-02T13:12:17.804Z,980.91
2023-04-02T13:13:18.371Z,980.92
2023-04-02T13:14:18.882Z,980.89
2023-04-02T13:15:19.426Z,980.92
2023-04-02T13:16:20.035Z,980.93
2023-04-02T13:17:20.099Z,980.91
2023-04-02T13:18:20.662Z,980.92
2023-04-02T13:19:23.249Z,980.91
2023-04-02T13:20:21.358Z,980.92
2023-04-02T13:21:21.946Z,980.93
2023-04-02T13:22:26.779Z,980.95
2023-04-02T13:23:23.565Z,980.98
2023-04-02T13:24:22.949Z,981.00
2023-04-02T13:25:23.469Z,981.00
2023-04-02T13:26:24.008Z,981.03
2023-04-02T13:27:24.530Z,981.03
2023-04-02T13:28:25.071Z,981.05
2023-04-02T13:31:58.855Z,981.11